createdAt,value
2023-02-14T00:00:34.996Z,4.84
2023-02-14T00:05:57.777Z,4.83
2023-02-14T00:11:00.889Z,4.79
2023-02-14T00:16:04.015Z,4.73
2023-02-14T00:21:06.897Z,4.75
2023-02-14T00:26:16.107Z,4.79
2023-02-14T00:31:19.071Z,4.81
2023-02-14T00:36:22.639Z,4.78
2023-02-14T00:41:25.517Z,4.79
2023-02-14T00:46:28.815Z,4.84
2023-02-14T00:51:32.016Z,4.84
2023-02-14T00:56:34.938Z,4.84
2023-02-14T01:01:38.232Z,4.82
2023-02-14T01:06:41.187Z,4.77
2023-02-14T01:11:44.037Z,4.78
2023-02-14T01:16:46.992Z,4.84
2023-02-14T01:21:49.841Z,4.85
2023-02-14T01:26:52.687Z,4.83
2023-02-14T01:31:55.559Z,4.80
2023-02-14T01:36:58.444Z,4.77
2023-02-14T01:42:01.287Z,4.78
2023-02-14T01:47:08.768Z,4.79
2023-02-14T01:52:24.002Z,4.73
2023-02-14T01:57:35.392Z,4.68
2023-02-14T02:02:38.273Z,4.73
2023-02-14T02:07:42.316Z,4.73
2023-02-14T02:12:45.592Z,4.72
2023-02-14T02:18:45.831Z,4.69
2023-02-14T02:24:28.825Z,4.65
2023-02-14T02:30:08.751Z,4.69
2023-02-14T02:35:50.206Z,4.69
2023-02-14T02:41:13.606Z,4.67
2023-02-14T02:46:35.017Z,4.63
2023-02-14T02:52:15.452Z,4.66
2023-02-14T02:57:32.121Z,4.60
2023-02-14T03:03:01.945Z,4.59
2023-02-14T03:08:05.796Z,4.58
2023-02-14T03:13:21.157Z,4.50
2023-02-14T03:18:32.044Z,4.55
2023-02-14T03:24:09.607Z,4.53
2023-02-14T03:29:36.772Z,4.49
2023-02-14T03:34:55.060Z,4.51
2023-02-14T03:40:13.816Z,4.57
2023-02-14T03:45:35.875Z,4.55
2023-02-14T03:50:42.726Z,4.52
2023-02-14T03:56:04.388Z,4.46
2023-02-14T04:01:26.236Z,4.52
2023-02-14T04:06:29.165Z,4.48
2023-02-14T04:11:35.629Z,4.45
2023-02-14T04:16:56.814Z,4.45
2023-02-14T04:21:59.712Z,4.49
2023-02-14T04:27:11.555Z,4.46
2023-02-14T04:32:18.494Z,4.49
2023-02-14T04:37:21.416Z,4.46
2023-02-14T04:42:24.966Z,4.46
2023-02-14T04:47:27.817Z,4.48
2023-02-14T04:52:30.674Z,4.48
2023-02-14T04:57:33.534Z,4.41
2023-02-14T05:02:37.323Z,4.41
2023-02-14T05:07:40.165Z,4.39
2023-02-14T05:12:43.226Z,4.39
2023-02-14T05:17:46.107Z,4.33
2023-02-14T05:22:48.942Z,4.25
2023-02-14T05:27:51.781Z,4.20
2023-02-14T05:32:54.932Z,4.22
2023-02-14T05:37:58.131Z,4.16
2023-02-14T05:43:01.044Z,4.08
2023-02-14T05:48:04.102Z,4.15
2023-02-14T05:53:06.952Z,4.20
2023-02-14T05:58:09.992Z,4.18
2023-02-14T06:03:12.880Z,4.14
2023-02-14T06:08:15.977Z,4.15
2023-02-14T06:13:18.849Z,4.17
2023-02-14T06:18:21.773Z,4.18
2023-02-14T06:23:24.621Z,4.13
2023-02-14T06:28:27.496Z,4.12
2023-02-14T06:33:30.325Z,4.25
2023-02-14T06:38:33.247Z,4.27
2023-02-14T06:43:36.764Z,4.27
2023-02-14T06:48:39.622Z,4.24
2023-02-14T06:53:42.461Z,4.21
2023-02-14T06:58:45.294Z,4.23
2023-02-14T07:03:48.168Z,4.21
2023-02-14T07:08:51.037Z,4.16
2023-02-14T07:13:53.892Z,4.17
2023-02-14T07:18:56.746Z,4.20
2023-02-14T07:23:59.597Z,4.21
2023-02-14T07:29:02.470Z,4.15
2023-02-14T07:34:05.468Z,4.09
2023-02-14T07:39:08.319Z,4.06
2023-02-14T07:44:11.805Z,4.04
2023-02-14T07:49:15.060Z,4.00
2023-02-14T07:54:19.663Z,4.03
2023-02-14T07:59:25.591Z,4.01
2023-02-14T08:04:28.792Z,4.05
2023-02-14T08:09:31.645Z,4.08
2023-02-14T08:14:34.497Z,4.12
2023-02-14T08:19:37.493Z,4.20
2023-02-14T08:24:40.352Z,4.29
2023-02-14T08:29:43.208Z,4.34
2023-02-14T08:34:46.126Z,4.28
2023-02-14T08:39:48.936Z,4.22
2023-02-14T08:44:51.782Z,4.20
2023-02-14T08:49:54.855Z,4.18
2023-02-14T08:54:57.777Z,4.25
2023-02-14T09:00:00.763Z,4.38
2023-02-14T09:05:04.135Z,4.50
2023-02-14T09:10:08.011Z,4.51
2023-02-14T09:15:11.706Z,4.47
2023-02-14T09:20:17.085Z,4.52
2023-02-14T09:25:20.002Z,4.58
2023-02-14T09:30:22.978Z,4.62
2023-02-14T09:35:25.842Z,4.60
2023-02-14T09:40:29.006Z,4.63
2023-02-14T09:45:34.066Z,4.60
2023-02-14T09:50:57.305Z,4.51
2023-02-14T09:56:50.641Z,4.51
2023-02-14T10:02:06.095Z,4.51
2023-02-14T10:07:47.375Z,4.49
2023-02-14T10:13:07.589Z,4.49
2023-02-14T10:18:30.063Z,4.60
2023-02-14T10:23:46.929Z,4.72
2023-02-14T10:28:50.908Z,4.72
2023-02-14T10:34:05.197Z,4.76
2023-02-14T10:39:28.525Z,4.81
2023-02-14T10:44:54.922Z,4.72
2023-02-14T10:50:06.600Z,4.73
2023-02-14T10:55:31.828Z,4.81
2023-02-14T11:00:46.355Z,4.89
2023-02-14T11:05:50.271Z,4.92
2023-02-14T11:10:57.332Z,4.91
2023-02-14T11:16:18.532Z,4.86
2023-02-14T11:21:24.401Z,4.77
2023-02-14T11:26:32.982Z,4.66
2023-02-14T11:31:39.096Z,4.64
2023-02-14T11:36:43.081Z,4.67
2023-02-14T11:41:56.555Z,4.70
2023-02-14T11:47:27.282Z,4.72
2023-02-14T11:52:30.633Z,4.74
2023-02-14T11:57:38.219Z,4.75
2023-02-14T12:02:44.881Z,4.76
2023-02-14T12:07:52.421Z,4.81
2023-02-14T12:13:08.550Z,4.88
2023-02-14T12:18:49.195Z,4.99
2023-02-14T12:24:26.003Z,5.04
2023-02-14T12:29:53.006Z,5.00
2023-02-14T12:35:15.530Z,5.01
2023-02-14T12:40:50.897Z,5.03
2023-02-14T12:46:16.509Z,5.08
2023-02-14T12:52:09.140Z,5.02
2023-02-14T12:57:35.886Z,4.92
2023-02-14T13:03:16.309Z,4.95
2023-02-14T13:08:19.130Z,4.90
2023-02-14T13:13:46.333Z,4.83
2023-02-14T13:19:30.510Z,4.90
2023-02-14T13:24:42.206Z,4.90
2023-02-14T13:30:12.903Z,4.88
2023-02-14T13:35:18.468Z,4.83
2023-02-14T13:40:25.287Z,4.87
2023-02-14T13:45:40.076Z,4.89
2023-02-14T13:51:00.324Z,4.89
2023-02-14T13:56:12.534Z,4.92
2023-02-14T14:01:50.313Z,5.06
2023-02-14T14:07:05.141Z,5.11
2023-02-14T14:12:42.140Z,4.98
2023-02-14T14:18:14.717Z,4.94
2023-02-14T14:23:37.519Z,4.97
2023-02-14T14:28:40.716Z,4.84
2023-02-14T14:33:43.920Z,4.71
2023-02-14T14:38:53.578Z,4.59
2023-02-14T14:43:56.886Z,4.54
2023-02-14T14:48:59.770Z,4.55
2023-02-14T14:54:20.132Z,4.64
2023-02-14T14:59:27.720Z,4.61
2023-02-14T15:04:35.779Z,4.59
2023-02-14T15:09:40.166Z,4.57
2023-02-14T15:14:50.421Z,4.57
2023-02-14T15:20:02.030Z,4.66
2023-02-14T15:25:17.012Z,4.74
2023-02-14T15:30:20.143Z,4.70
2023-02-14T15:35:30.645Z,4.59
2023-02-14T15:40:35.759Z,4.65
2023-02-14T15:45:38.948Z,4.61
2023-02-14T15:50:55.201Z,4.45
2023-02-14T15:56:11.365Z,4.39
2023-02-14T16:01:14.333Z,4.36
2023-02-14T16:07:02.682Z,4.34
2023-02-14T16:12:31.900Z,4.41
2023-02-14T16:17:35.717Z,4.47
2023-02-14T16:22:38.557Z,4.43
2023-02-14T16:27:42.597Z,4.41
2023-02-14T16:32:51.615Z,4.33
2023-02-14T16:37:54.550Z,4.38
2023-02-14T16:42:59.175Z,4.35
2023-02-14T16:48:02.368Z,4.25
2023-02-14T16:53:12.938Z,4.22
2023-02-14T16:58:15.864Z,4.32
2023-02-14T17:03:19.236Z,4.36
2023-02-14T17:08:22.152Z,4.43
2023-02-14T17:13:27.719Z,4.44
2023-02-14T17:18:33.202Z,4.51
2023-02-14T17:23:36.122Z,4.44
2023-02-14T17:28:38.984Z,4.38
2023-02-14T17:33:41.895Z,4.35
2023-02-14T17:38:45.019Z,4.40
2023-02-14T17:43:48.690Z,4.38
2023-02-14T17:48:51.674Z,4.34
2023-02-14T17:53:54.558Z,4.33
2023-02-14T17:58:57.378Z,4.32
2023-02-14T18:04:01.112Z,4.31
2023-02-14T18:09:07.452Z,4.32
2023-02-14T18:14:10.604Z,4.28
2023-02-14T18:19:16.073Z,4.32
2023-02-14T18:24:20.043Z,4.43
2023-02-14T18:29:23.208Z,4.46
2023-02-14T18:34:26.304Z,4.44
2023-02-14T18:39:29.161Z,4.39
2023-02-14T18:44:33.456Z,4.39
2023-02-14T18:49:37.220Z,4.37
2023-02-14T18:54:40.132Z,4.41
2023-02-14T18:59:43.258Z,4.43
2023-02-14T19:04:46.223Z,4.40
2023-02-14T19:09:49.086Z,4.38
2023-02-14T19:14:55.694Z,4.40
2023-02-14T19:19:59.794Z,4.44
2023-02-14T19:25:02.645Z,4.49
2023-02-14T19:30:06.982Z,4.55
2023-02-14T19:35:09.859Z,4.53
2023-02-14T19:40:14.574Z,4.48
2023-02-14T19:45:18.625Z,4.48
2023-02-14T19:50:22.110Z,4.52
2023-02-14T19:55:25.173Z,4.53
2023-02-14T20:00:28.297Z,4.57
2023-02-14T20:05:31.152Z,4.58
2023-02-14T20:10:34.074Z,4.57
2023-02-14T20:15:37.591Z,4.57
2023-02-14T20:21:02.200Z,4.52
2023-02-14T20:26:10.626Z,4.55
2023-02-14T20:31:16.049Z,4.64
2023-02-14T20:36:20.310Z,4.66
2023-02-14T20:41:23.428Z,4.66
2023-02-14T20:46:26.500Z,4.60
2023-02-14T20:51:30.889Z,4.58
2023-02-14T20:56:34.495Z,4.63
2023-02-14T21:01:38.013Z,4.68
2023-02-14T21:06:41.140Z,4.75
2023-02-14T21:11:44.107Z,4.80
2023-02-14T21:16:47.064Z,4.82
2023-02-14T21:21:49.974Z,4.78
2023-02-14T21:26:52.875Z,4.74
2023-02-14T21:31:55.822Z,4.77
2023-02-14T21:36:59.082Z,4.84
2023-02-14T21:42:02.416Z,4.86
2023-02-14T21:47:05.246Z,4.83
2023-02-14T21:52:08.060Z,4.81
2023-02-14T21:57:10.867Z,4.75
2023-02-14T22:02:13.745Z,4.68
2023-02-14T22:07:16.738Z,4.65
2023-02-14T22:12:19.597Z,4.74
2023-02-14T22:17:22.426Z,4.74
2023-02-14T22:22:25.330Z,4.77
2023-02-14T22:27:28.420Z,4.75
2023-02-14T22:32:31.297Z,4.74
2023-02-14T22:37:34.183Z,4.73
2023-02-14T22:42:36.985Z,4.70
2023-02-14T22:47:39.861Z,4.72
2023-02-14T22:52:42.716Z,4.76
2023-02-14T22:57:45.551Z,4.83
2023-02-14T23:02:48.402Z,4.87
2023-02-14T23:07:51.290Z,4.88
2023-02-14T23:13:12.688Z,4.86
2023-02-14T23:18:34.363Z,4.78
2023-02-14T23:23:37.210Z,4.75
2023-02-14T23:28:40.023Z,4.78
2023-02-14T23:33:42.897Z,4.86
2023-02-14T23:38:45.773Z,4.96
2023-02-14T23:43:49.039Z,4.97
2023-02-14T23:48:51.946Z,4.93
2023-02-14T23:53:55.151Z,4.88
2023-02-14T23:58:58.008Z,4.87
